createdAt,value
2022-10-08T00:01:56.207Z,4.88
2022-10-08T00:03:58.596Z,5.20
2022-10-08T00:06:05.545Z,4.43
2022-10-08T00:08:08.530Z,5.35
2022-10-08T00:10:10.797Z,4.78
2022-10-08T00:12:15.554Z,4.22
2022-10-08T00:14:18.415Z,5.45
2022-10-08T00:16:22.763Z,5.85
2022-10-08T00:18:25.240Z,6.72
2022-10-08T00:20:27.496Z,5.85
2022-10-08T00:22:29.869Z,3.90
2022-10-08T00:24:32.226Z,4.15
2022-10-08T00:26:39.760Z,4.55
2022-10-08T00:28:46.617Z,5.65
2022-10-08T00:30:48.856Z,3.95
2022-10-08T00:32:51.112Z,4.10
2022-10-08T00:34:53.381Z,3.38
2022-10-08T00:36:56.187Z,4.30
2022-10-08T00:38:59.292Z,6.00
2022-10-08T00:41:01.640Z,3.85
2022-10-08T00:43:03.921Z,7.05
2022-10-08T00:45:07.659Z,3.83
2022-10-08T00:47:36.829Z,5.72
2022-10-08T00:49:39.094Z,4.32
2022-10-08T00:51:44.121Z,3.97
2022-10-08T00:53:47.302Z,6.32
2022-10-08T00:55:50.458Z,6.03
2022-10-08T00:57:53.280Z,4.30
2022-10-08T00:59:56.501Z,4.68
2022-10-08T01:01:58.803Z,4.07
2022-10-08T01:04:03.305Z,5.18
2022-10-08T01:06:05.632Z,7.47
2022-10-08T01:08:25.916Z,5.05
2022-10-08T01:10:33.863Z,4.93
2022-10-08T01:12:52.666Z,2.90
2022-10-08T01:15:00.401Z,4.05
2022-10-08T01:17:26.902Z,6.03
2022-10-08T01:19:29.758Z,4.93
2022-10-08T01:21:31.976Z,4.28
2022-10-08T01:23:43.296Z,5.20
2022-10-08T01:26:04.342Z,4.47
2022-10-08T01:28:25.126Z,5.13
2022-10-08T01:30:28.115Z,4.25
2022-10-08T01:32:35.021Z,4.65
2022-10-08T01:34:43.416Z,4.97
2022-10-08T01:36:47.033Z,4.55
2022-10-08T01:38:52.176Z,6.70
2022-10-08T01:40:59.010Z,4.03
2022-10-08T01:43:02.222Z,6.03
2022-10-08T01:45:06.897Z,3.67
2022-10-08T01:47:11.187Z,6.32
2022-10-08T01:49:15.022Z,4.45
2022-10-08T01:51:32.458Z,3.72
2022-10-08T01:53:37.684Z,4.05
2022-10-08T01:55:41.585Z,5.35
2022-10-08T01:57:44.281Z,3.60
2022-10-08T01:59:58.029Z,6.95
2022-10-08T02:02:02.496Z,5.68
2022-10-08T02:04:23.838Z,5.80
2022-10-08T02:06:27.016Z,6.75
2022-10-08T02:08:29.290Z,4.85
2022-10-08T02:10:31.666Z,3.90
2022-10-08T02:12:33.936Z,4.10
2022-10-08T02:14:38.645Z,4.95
2022-10-08T02:16:47.329Z,7.03
2022-10-08T02:18:56.363Z,3.80
2022-10-08T02:20:58.926Z,2.92
2022-10-08T02:23:15.983Z,3.40
2022-10-08T02:25:23.863Z,7.88
2022-10-08T02:27:30.098Z,3.90
2022-10-08T02:29:38.349Z,3.95
2022-10-08T02:31:43.773Z,4.65
2022-10-08T02:33:52.347Z,5.70
2022-10-08T02:38:00.351Z,5.28
2022-10-08T02:40:05.695Z,3.83
2022-10-08T02:42:11.300Z,4.13
2022-10-08T02:44:17.146Z,4.63
2022-10-08T02:46:21.167Z,4.22
2022-10-08T02:48:27.743Z,3.83
2022-10-08T02:50:31.155Z,4.30
2022-10-08T02:52:39.478Z,3.47
2022-10-08T02:54:42.902Z,3.75
2022-10-08T02:57:05.860Z,4.05
2022-10-08T02:59:11.978Z,3.60
2022-10-08T03:01:16.943Z,2.65
2022-10-08T03:03:27.561Z,4.82
2022-10-08T03:05:29.898Z,4.40
2022-10-08T03:07:33.222Z,5.15
2022-10-08T03:09:38.078Z,4.45
2022-10-08T03:11:40.622Z,3.75
2022-10-08T03:13:45.780Z,6.15
2022-10-08T03:15:51.617Z,4.10
2022-10-08T03:17:54.190Z,2.97
2022-10-08T03:19:56.453Z,3.42
2022-10-08T03:21:58.684Z,4.50
2022-10-08T03:24:00.940Z,3.75
2022-10-08T03:26:03.214Z,3.03
2022-10-08T03:28:05.518Z,5.43
2022-10-08T03:30:08.140Z,3.35
2022-10-08T03:32:10.557Z,5.95
2022-10-08T03:34:12.766Z,3.72
2022-10-08T03:36:15.078Z,5.18
2022-10-08T03:38:17.530Z,4.60
2022-10-08T03:40:19.968Z,5.22
2022-10-08T03:42:22.197Z,3.53
2022-10-08T03:44:24.479Z,3.38
2022-10-08T03:46:26.791Z,3.67
2022-10-08T03:48:29.250Z,6.18
2022-10-08T03:50:31.537Z,4.03
2022-10-08T03:52:33.796Z,3.80
2022-10-08T03:54:36.600Z,3.15
2022-10-08T03:56:38.843Z,3.17
2022-10-08T03:58:41.135Z,3.67
2022-10-08T04:00:43.408Z,3.40
2022-10-08T04:02:50.246Z,3.70
2022-10-08T04:04:52.940Z,3.47
2022-10-08T04:06:55.177Z,3.70
2022-10-08T04:09:01.111Z,7.18
2022-10-08T04:11:07.428Z,2.65
2022-10-08T04:13:09.883Z,4.57
2022-10-08T04:15:12.257Z,4.13
2022-10-08T04:17:14.570Z,2.30
2022-10-08T04:19:17.873Z,4.65
2022-10-08T04:21:20.275Z,3.42
2022-10-08T04:23:22.545Z,3.28
2022-10-08T04:25:24.911Z,3.45
2022-10-08T04:27:27.286Z,4.03
2022-10-08T04:29:29.510Z,4.75
2022-10-08T04:31:31.808Z,3.30
2022-10-08T04:33:34.866Z,3.00
2022-10-08T04:35:40.057Z,3.40
2022-10-08T04:37:42.323Z,3.40
2022-10-08T04:39:44.569Z,3.10
2022-10-08T04:41:46.812Z,4.03
2022-10-08T04:43:49.182Z,4.00
2022-10-08T04:45:51.461Z,2.88
2022-10-08T04:47:53.847Z,4.75
2022-10-08T04:49:56.121Z,3.55
2022-10-08T04:51:58.385Z,3.22
2022-10-08T04:54:01.737Z,3.88
2022-10-08T04:56:11.656Z,4.40
2022-10-08T04:58:13.876Z,5.07
2022-10-08T05:00:18.760Z,3.28
2022-10-08T05:02:21.478Z,5.35
2022-10-08T05:04:24.101Z,3.88
2022-10-08T05:06:28.383Z,4.55
2022-10-08T05:08:30.654Z,4.40
2022-10-08T05:10:32.903Z,5.05
2022-10-08T05:12:35.136Z,4.78
2022-10-08T05:14:37.374Z,3.03
2022-10-08T05:16:39.623Z,3.97
2022-10-08T05:18:42.314Z,4.82
2022-10-08T05:20:44.563Z,4.20
2022-10-08T05:22:47.659Z,5.18
2022-10-08T05:24:50.094Z,3.08
2022-10-08T05:26:59.626Z,4.45
2022-10-08T05:29:02.214Z,4.72
2022-10-08T05:31:04.554Z,4.35
2022-10-08T05:33:06.904Z,4.32
2022-10-08T05:35:09.365Z,3.47
2022-10-08T05:37:11.611Z,5.00
2022-10-08T05:39:14.049Z,3.70
2022-10-08T05:41:21.622Z,3.85
2022-10-08T05:43:23.901Z,4.15
2022-10-08T05:45:26.239Z,3.92
2022-10-08T05:47:28.504Z,4.00
2022-10-08T05:49:30.792Z,3.13
2022-10-08T05:51:33.389Z,4.25
2022-10-08T05:53:39.301Z,4.38
2022-10-08T05:55:41.605Z,4.15
2022-10-08T05:57:43.846Z,3.65
2022-10-08T05:59:46.100Z,3.22
2022-10-08T06:01:48.450Z,3.45
2022-10-08T06:03:51.603Z,4.10
2022-10-08T06:05:54.322Z,3.13
2022-10-08T06:07:59.791Z,4.25
2022-10-08T06:10:02.012Z,3.10
2022-10-08T06:12:04.321Z,2.97
2022-10-08T06:14:07.237Z,6.75
2022-10-08T06:16:11.098Z,4.70
2022-10-08T06:18:13.424Z,3.30
2022-10-08T06:20:15.740Z,4.03
2022-10-08T06:22:17.979Z,4.18
2022-10-08T06:24:20.327Z,3.58
2022-10-08T06:26:23.320Z,3.83
2022-10-08T06:28:25.575Z,4.25
2022-10-08T06:30:27.998Z,3.60
2022-10-08T06:32:30.316Z,2.67
2022-10-08T06:34:32.529Z,4.85
2022-10-08T06:36:37.156Z,3.85
2022-10-08T06:38:39.485Z,4.13
2022-10-08T06:40:41.710Z,5.97
2022-10-08T06:42:44.230Z,3.17
2022-10-08T06:44:46.827Z,5.95
2022-10-08T06:46:49.127Z,5.70
2022-10-08T06:48:51.426Z,6.13
2022-10-08T06:51:00.658Z,3.47
2022-10-08T06:53:04.032Z,5.00
2022-10-08T06:55:06.403Z,5.82
2022-10-08T06:57:08.635Z,3.88
2022-10-08T06:59:10.916Z,4.53
2022-10-08T07:01:14.532Z,4.13
2022-10-08T07:03:16.842Z,4.50
2022-10-08T07:05:19.573Z,4.10
2022-10-08T07:07:21.828Z,3.17
2022-10-08T07:09:24.543Z,5.32
2022-10-08T07:11:27.384Z,5.03
2022-10-08T07:13:29.861Z,3.67
2022-10-08T07:15:33.173Z,4.60
2022-10-08T07:17:35.518Z,3.95
2022-10-08T07:19:37.744Z,3.33
2022-10-08T07:21:40.784Z,3.90
2022-10-08T07:23:43.221Z,3.05
2022-10-08T07:25:55.029Z,6.00
2022-10-08T07:27:57.327Z,3.78
2022-10-08T07:29:59.663Z,2.90
2022-10-08T07:32:02.017Z,2.60
2022-10-08T07:34:08.699Z,3.67
2022-10-08T07:36:12.686Z,3.45
2022-10-08T07:38:18.856Z,3.50
2022-10-08T07:40:21.085Z,4.22
2022-10-08T07:42:23.329Z,3.15
2022-10-08T07:44:25.628Z,4.20
2022-10-08T07:46:29.559Z,4.45
2022-10-08T07:48:34.261Z,4.45
2022-10-08T07:50:36.761Z,3.55
2022-10-08T07:52:38.989Z,5.60
2022-10-08T07:54:42.632Z,3.42
2022-10-08T07:56:45.041Z,5.38
2022-10-08T07:58:47.749Z,3.78
2022-10-08T08:00:58.173Z,3.70
2022-10-08T08:03:00.495Z,4.18
2022-10-08T08:05:02.834Z,2.78
2022-10-08T08:07:05.588Z,3.30
2022-10-08T08:09:07.907Z,4.05
2022-10-08T08:11:11.485Z,3.17
2022-10-08T08:13:14.015Z,3.65
2022-10-08T08:15:16.294Z,4.00
2022-10-08T08:17:18.590Z,3.83
2022-10-08T08:19:20.890Z,3.58
2022-10-08T08:21:24.641Z,3.70
2022-10-08T08:23:31.057Z,4.68
2022-10-08T08:25:33.799Z,3.45
2022-10-08T08:27:36.101Z,3.58
2022-10-08T08:29:38.467Z,3.45
2022-10-08T08:31:44.674Z,4.53
2022-10-08T08:33:51.093Z,3.25
2022-10-08T08:35:55.629Z,3.47
2022-10-08T08:37:57.884Z,4.15
2022-10-08T08:40:00.212Z,2.92
2022-10-08T08:42:05.364Z,2.88
2022-10-08T08:44:12.567Z,5.43
2022-10-08T08:46:18.233Z,4.38
2022-10-08T08:48:22.799Z,7.43
2022-10-08T08:50:29.560Z,6.85
2022-10-08T08:52:36.288Z,6.63
2022-10-08T08:54:38.656Z,3.85
2022-10-08T08:56:41.142Z,3.47
2022-10-08T08:58:45.949Z,6.35
2022-10-08T09:00:52.591Z,3.72
2022-10-08T09:02:57.568Z,4.18
2022-10-08T09:05:02.709Z,5.97
2022-10-08T09:07:06.414Z,4.00
2022-10-08T09:09:25.049Z,4.35
2022-10-08T09:11:29.658Z,3.80
2022-10-08T09:13:43.476Z,2.75
2022-10-08T09:15:46.969Z,4.20
2022-10-08T09:17:52.130Z,5.20
2022-10-08T09:19:54.542Z,3.35
2022-10-08T09:21:56.851Z,4.43
2022-10-08T09:23:59.450Z,5.28
2022-10-08T09:26:10.784Z,4.43
2022-10-08T09:28:33.012Z,4.47
2022-10-08T09:30:36.833Z,6.85
2022-10-08T09:32:39.827Z,5.10
2022-10-08T09:34:43.277Z,5.20
2022-10-08T09:36:45.565Z,5.50
2022-10-08T09:38:47.820Z,5.25
2022-10-08T09:41:10.338Z,4.95
2022-10-08T09:43:14.377Z,4.50
2022-10-08T09:45:31.655Z,4.43
2022-10-08T09:47:34.011Z,5.93
2022-10-08T09:49:39.809Z,3.10
2022-10-08T09:51:42.893Z,6.00
2022-10-08T09:53:50.581Z,7.53
2022-10-08T09:55:58.005Z,5.60
2022-10-08T09:58:00.761Z,4.18
2022-10-08T10:00:06.170Z,5.18
2022-10-08T10:02:24.533Z,2.78
2022-10-08T10:06:36.568Z,2.70
2022-10-08T10:08:51.287Z,5.43
2022-10-08T10:10:53.685Z,4.13
2022-10-08T10:12:59.428Z,8.27
2022-10-08T10:15:13.289Z,8.70
2022-10-08T10:17:30.656Z,3.95
2022-10-08T10:19:40.624Z,5.43
2022-10-08T10:21:46.320Z,3.97
2022-10-08T10:24:07.476Z,4.93
2022-10-08T10:26:11.491Z,4.72
2022-10-08T10:28:13.949Z,4.45
2022-10-08T10:30:21.065Z,4.75
2022-10-08T10:32:30.981Z,5.22
2022-10-08T10:34:35.941Z,4.57
2022-10-08T10:36:48.436Z,3.30
2022-10-08T10:39:04.003Z,5.63
2022-10-08T10:41:09.012Z,3.47
2022-10-08T10:43:11.264Z,4.82
2022-10-08T10:45:22.597Z,5.80
2022-10-08T10:47:31.670Z,2.42
2022-10-08T10:49:38.442Z,4.40
2022-10-08T10:51:46.990Z,3.45
2022-10-08T10:55:58.053Z,5.93
2022-10-08T11:00:07.659Z,5.80
2022-10-08T11:02:14.136Z,5.72
2022-10-08T11:04:39.478Z,3.05
2022-10-08T11:07:00.347Z,11.48
2022-10-08T11:09:21.458Z,5.53
2022-10-08T11:11:33.329Z,6.15
2022-10-08T11:13:53.700Z,6.63
2022-10-08T11:15:56.008Z,4.53
2022-10-08T11:17:58.233Z,4.47
2022-10-08T11:20:19.101Z,5.95
2022-10-08T11:22:21.351Z,7.50
2022-10-08T11:24:35.711Z,4.85
2022-10-08T11:26:44.018Z,6.95
2022-10-08T11:28:49.539Z,3.75
2022-10-08T11:31:03.941Z,6.10
2022-10-08T11:33:07.127Z,4.60
2022-10-08T11:35:12.548Z,3.70
2022-10-08T11:37:14.807Z,3.47
2022-10-08T11:39:21.171Z,3.65
2022-10-08T11:41:23.429Z,4.63
2022-10-08T11:43:25.661Z,5.70
2022-10-08T11:45:32.674Z,7.18
2022-10-08T11:47:44.210Z,2.83
2022-10-08T11:49:50.591Z,4.07
2022-10-08T11:51:53.588Z,5.20
2022-10-08T11:54:04.966Z,6.20
2022-10-08T11:56:10.780Z,2.03
2022-10-08T11:58:21.421Z,4.72
2022-10-08T12:00:36.276Z,7.03
2022-10-08T12:02:44.161Z,7.22
2022-10-08T12:04:48.604Z,3.03
2022-10-08T12:07:01.544Z,3.47
2022-10-08T12:09:05.656Z,3.70
2022-10-08T12:11:40.602Z,2.30
2022-10-08T12:13:42.912Z,2.90
2022-10-08T12:15:45.173Z,3.92
2022-10-08T12:17:54.717Z,4.10
2022-10-08T12:20:05.735Z,2.20
2022-10-08T12:22:17.696Z,7.15
2022-10-08T12:24:39.882Z,2.10
2022-10-08T12:27:02.267Z,1.35
2022-10-08T12:29:04.544Z,3.70
2022-10-08T12:31:27.499Z,5.20
2022-10-08T12:33:30.539Z,4.32
2022-10-08T12:35:35.270Z,3.10
2022-10-08T12:37:46.191Z,3.35
2022-10-08T12:39:49.108Z,3.13
2022-10-08T12:41:59.811Z,4.70
2022-10-08T12:44:09.273Z,1.20
2022-10-08T12:46:30.570Z,1.75
2022-10-08T12:48:40.457Z,3.97
2022-10-08T12:50:48.487Z,1.75
2022-10-08T12:52:50.963Z,2.03
2022-10-08T12:54:54.682Z,1.60
2022-10-08T12:56:57.223Z,1.70
2022-10-08T12:59:02.319Z,3.05
2022-10-08T13:01:06.143Z,1.67
2022-10-08T13:03:17.572Z,2.00
2022-10-08T13:05:31.793Z,4.03
2022-10-08T13:07:35.448Z,3.00
2022-10-08T13:09:37.971Z,3.33
2022-10-08T13:11:40.256Z,2.47
2022-10-08T13:13:44.942Z,1.65
2022-10-08T13:15:59.229Z,3.70
2022-10-08T13:18:12.246Z,2.47
2022-10-08T13:20:19.584Z,2.47
2022-10-08T13:22:21.827Z,1.80
2022-10-08T13:24:25.460Z,2.95
2022-10-08T13:26:37.831Z,4.07
2022-10-08T13:28:59.315Z,2.55
2022-10-08T13:31:02.441Z,7.18
2022-10-08T13:33:05.946Z,1.52
2022-10-08T13:35:20.620Z,2.65
2022-10-08T13:37:23.024Z,2.30
2022-10-08T13:39:27.025Z,1.30
2022-10-08T13:41:29.312Z,1.50
2022-10-08T13:43:31.820Z,1.92
2022-10-08T13:45:37.052Z,2.53
2022-10-08T13:47:39.346Z,1.25
2022-10-08T13:49:41.611Z,2.13
2022-10-08T13:51:43.881Z,2.95
2022-10-08T13:53:46.201Z,1.40
2022-10-08T13:55:49.600Z,1.90
2022-10-08T13:57:51.869Z,2.30
2022-10-08T13:59:54.147Z,1.75
2022-10-08T14:01:56.594Z,4.25
2022-10-08T14:03:58.926Z,1.35
2022-10-08T14:06:01.194Z,2.10
2022-10-08T14:08:05.072Z,2.28
2022-10-08T14:10:07.578Z,3.50
2022-10-08T14:12:10.030Z,1.88
2022-10-08T14:14:15.755Z,1.65
2022-10-08T14:16:18.047Z,1.88
2022-10-08T14:18:20.419Z,1.67
2022-10-08T14:20:22.701Z,2.00
2022-10-08T14:22:25.583Z,2.10
2022-10-08T14:24:28.515Z,2.95
2022-10-08T14:26:30.735Z,1.50
2022-10-08T14:28:33.048Z,1.42
2022-10-08T14:30:35.369Z,2.50
2022-10-08T14:32:37.665Z,2.10
2022-10-08T14:34:39.971Z,3.15
2022-10-08T14:36:42.764Z,1.92
2022-10-08T14:38:45.153Z,1.58
2022-10-08T14:40:47.367Z,1.38
2022-10-08T14:42:50.444Z,2.10
2022-10-08T14:44:53.399Z,1.15
2022-10-08T14:46:55.707Z,2.45
2022-10-08T14:48:58.100Z,2.03
2022-10-08T14:51:00.749Z,1.05
2022-10-08T14:53:02.960Z,1.48
2022-10-08T14:55:05.856Z,1.40
2022-10-08T14:57:08.272Z,2.65
2022-10-08T14:59:11.181Z,1.42
2022-10-08T15:01:13.467Z,2.00
2022-10-08T15:03:15.711Z,1.38
2022-10-08T15:05:17.939Z,1.70
2022-10-08T15:07:20.183Z,1.73
2022-10-08T15:09:22.658Z,2.25
2022-10-08T15:11:24.907Z,2.35
2022-10-08T15:13:27.139Z,2.60
2022-10-08T15:15:29.413Z,2.15
2022-10-08T15:17:31.692Z,0.93
2022-10-08T15:19:34.022Z,2.00
2022-10-08T15:21:36.482Z,1.85
2022-10-08T15:23:38.882Z,1.58
2022-10-08T15:25:41.175Z,1.63
2022-10-08T15:27:43.605Z,1.85
2022-10-08T15:29:45.838Z,2.90
2022-10-08T15:31:50.799Z,1.48
2022-10-08T15:33:54.121Z,1.00
2022-10-08T15:35:56.451Z,2.20
2022-10-08T15:37:58.690Z,1.52
2022-10-08T15:40:00.941Z,2.03
2022-10-08T15:42:03.200Z,1.42
2022-10-08T15:44:18.234Z,1.20
2022-10-08T15:46:20.941Z,1.33
2022-10-08T15:48:23.192Z,1.60
2022-10-08T15:50:25.481Z,1.60
2022-10-08T15:52:27.803Z,2.30
2022-10-08T15:54:30.137Z,1.33
2022-10-08T15:56:32.447Z,1.42
2022-10-08T15:58:53.207Z,2.53
2022-10-08T16:00:55.506Z,1.58
2022-10-08T16:02:57.995Z,1.42
2022-10-08T16:05:00.266Z,1.30
2022-10-08T16:07:02.517Z,1.83
2022-10-08T16:09:05.336Z,1.50
2022-10-08T16:11:24.562Z,2.10
2022-10-08T16:13:26.872Z,1.48
2022-10-08T16:15:29.126Z,1.48
2022-10-08T16:17:31.379Z,1.60
2022-10-08T16:19:33.595Z,1.10
2022-10-08T16:21:37.227Z,1.10
2022-10-08T16:23:39.785Z,2.05
2022-10-08T16:25:45.420Z,2.17
2022-10-08T16:27:47.995Z,2.70
2022-10-08T16:29:50.473Z,1.25
2022-10-08T16:31:52.945Z,1.80
2022-10-08T16:33:59.169Z,3.25
2022-10-08T16:36:05.643Z,1.48
2022-10-08T16:38:07.994Z,2.08
2022-10-08T16:40:10.463Z,1.55
2022-10-08T16:42:12.695Z,1.65
2022-10-08T16:44:16.072Z,1.23
2022-10-08T16:46:25.855Z,2.00
2022-10-08T16:48:28.158Z,2.78
2022-10-08T16:50:30.523Z,2.72
2022-10-08T16:52:32.770Z,2.92
2022-10-08T16:54:35.064Z,3.70
2022-10-08T16:56:38.352Z,3.40
2022-10-08T16:58:40.585Z,2.58
2022-10-08T17:00:42.824Z,3.55
2022-10-08T17:02:45.310Z,3.25
2022-10-08T17:04:47.829Z,3.05
2022-10-08T17:06:50.113Z,3.97
2022-10-08T17:08:52.880Z,4.00
2022-10-08T17:10:55.200Z,3.92
2022-10-08T17:12:57.458Z,2.70
2022-10-08T17:14:59.708Z,3.85
2022-10-08T17:17:02.014Z,2.08
2022-10-08T17:19:04.717Z,5.45
2022-10-08T17:21:07.734Z,5.47
2022-10-08T17:23:10.498Z,4.05
2022-10-08T17:25:13.050Z,2.83
2022-10-08T17:27:15.271Z,3.78
2022-10-08T17:29:17.708Z,3.95
2022-10-08T17:31:22.427Z,3.08
2022-10-08T17:33:24.690Z,3.10
2022-10-08T17:35:27.094Z,2.28
2022-10-08T17:37:29.312Z,4.47
2022-10-08T17:39:32.603Z,2.38
2022-10-08T17:41:35.829Z,3.15
2022-10-08T17:43:38.062Z,6.95
2022-10-08T17:45:40.331Z,4.80
2022-10-08T17:47:42.585Z,5.82
2022-10-08T17:49:44.940Z,10.55
2022-10-08T17:51:47.654Z,6.50
2022-10-08T17:53:54.231Z,3.40
2022-10-08T17:56:04.056Z,5.97
2022-10-08T17:58:06.307Z,8.95
2022-10-08T18:00:08.910Z,8.90
2022-10-08T18:02:11.236Z,7.78
2022-10-08T18:04:15.086Z,5.07
2022-10-08T18:06:17.459Z,3.65
2022-10-08T18:08:19.669Z,7.25
2022-10-08T18:10:21.919Z,7.97
2022-10-08T18:12:24.149Z,5.13
2022-10-08T18:14:26.470Z,7.55
2022-10-08T18:16:28.950Z,4.55
2022-10-08T18:18:31.381Z,4.85
2022-10-08T18:20:33.635Z,3.78
2022-10-08T18:22:35.874Z,5.82
2022-10-08T18:24:38.274Z,4.97
2022-10-08T18:26:40.517Z,6.65
2022-10-08T18:28:42.883Z,7.75
2022-10-08T18:30:45.330Z,7.35
2022-10-08T18:32:47.763Z,5.43
2022-10-08T18:34:50.856Z,4.90
2022-10-08T18:36:53.133Z,4.50
2022-10-08T18:38:59.281Z,6.80
2022-10-08T18:41:01.506Z,5.25
2022-10-08T18:43:03.969Z,6.40
2022-10-08T18:45:06.393Z,3.53
2022-10-08T18:47:08.644Z,6.95
2022-10-08T18:49:13.000Z,7.85
2022-10-08T18:51:20.039Z,7.63
2022-10-08T18:53:22.368Z,5.68
2022-10-08T18:55:24.647Z,5.95
2022-10-08T18:57:26.885Z,6.18
2022-10-08T18:59:31.039Z,4.18
2022-10-08T19:01:34.770Z,6.63
2022-10-08T19:03:37.181Z,4.63
2022-10-08T19:05:39.828Z,5.38
2022-10-08T19:07:42.052Z,4.97
2022-10-08T19:09:44.506Z,4.95
2022-10-08T19:11:48.370Z,5.07
2022-10-08T19:13:52.778Z,5.47
2022-10-08T19:15:55.074Z,6.60
2022-10-08T19:17:57.362Z,5.75
2022-10-08T19:19:59.566Z,6.32
2022-10-08T19:22:01.890Z,6.20
2022-10-08T19:24:04.210Z,10.98
2022-10-08T19:26:06.809Z,9.45
2022-10-08T19:28:09.115Z,8.35
2022-10-08T19:30:11.595Z,6.10
2022-10-08T19:32:13.845Z,6.82
2022-10-08T19:34:17.421Z,5.55
2022-10-08T19:36:20.582Z,7.18
2022-10-08T19:38:22.997Z,6.43
2022-10-08T19:40:25.292Z,4.93
2022-10-08T19:42:27.585Z,5.80
2022-10-08T19:44:29.910Z,9.63
2022-10-08T19:46:32.680Z,3.83
2022-10-08T19:48:34.985Z,4.68
2022-10-08T19:50:37.440Z,5.88
2022-10-08T19:52:39.692Z,5.43
2022-10-08T19:54:42.626Z,7.93
2022-10-08T19:56:44.876Z,6.30
2022-10-08T19:58:49.662Z,4.88
2022-10-08T20:01:00.436Z,5.43
2022-10-08T20:03:02.735Z,5.55
2022-10-08T20:05:05.297Z,4.70
2022-10-08T20:07:07.544Z,4.93
2022-10-08T20:09:12.052Z,4.43
2022-10-08T20:11:16.161Z,7.03
2022-10-08T20:13:18.398Z,6.38
2022-10-08T20:15:21.189Z,7.93
2022-10-08T20:17:23.488Z,6.57
2022-10-08T20:19:25.742Z,7.75
2022-10-08T20:21:29.082Z,5.85
2022-10-08T20:23:31.528Z,6.28
2022-10-08T20:25:33.801Z,7.00
2022-10-08T20:27:36.034Z,6.22
2022-10-08T20:29:38.563Z,7.07
2022-10-08T20:31:43.027Z,6.43
2022-10-08T20:33:45.958Z,7.15
2022-10-08T20:35:48.207Z,5.22
2022-10-08T20:37:50.427Z,5.20
2022-10-08T20:39:52.788Z,7.50
2022-10-08T20:41:55.359Z,5.70
2022-10-08T20:44:00.394Z,6.45
2022-10-08T20:46:06.277Z,4.93
2022-10-08T20:48:08.658Z,6.35
2022-10-08T20:50:11.150Z,5.25
2022-10-08T20:52:13.515Z,6.38
2022-10-08T20:54:16.738Z,5.03
2022-10-08T20:56:19.006Z,4.88
2022-10-08T20:58:21.273Z,6.00
2022-10-08T21:00:23.541Z,5.90
2022-10-08T21:02:26.467Z,7.07
2022-10-08T21:04:28.809Z,5.28
2022-10-08T21:06:32.083Z,5.50
2022-10-08T21:08:42.485Z,5.03
2022-10-08T21:10:44.691Z,5.90
2022-10-08T21:12:47.157Z,7.30
2022-10-08T21:14:49.603Z,7.18
2022-10-08T21:16:53.433Z,7.80
2022-10-08T21:19:02.769Z,5.22
2022-10-08T21:21:07.614Z,5.38
2022-10-08T21:23:09.914Z,6.28
2022-10-08T21:25:12.221Z,3.95
2022-10-08T21:27:14.509Z,4.70
2022-10-08T21:29:16.848Z,7.70
2022-10-08T21:31:20.885Z,6.40
2022-10-08T21:33:23.179Z,7.60
2022-10-08T21:35:25.453Z,5.97
2022-10-08T21:37:27.690Z,5.43
2022-10-08T21:39:29.916Z,8.07
2022-10-08T21:41:33.344Z,6.15
2022-10-08T21:43:35.581Z,7.35
2022-10-08T21:45:37.867Z,6.72
2022-10-08T21:47:40.304Z,9.55
2022-10-08T21:49:42.581Z,6.40
2022-10-08T21:51:45.220Z,5.55
2022-10-08T21:53:48.516Z,6.70
2022-10-08T21:55:57.366Z,5.25
2022-10-08T21:57:59.591Z,5.35
2022-10-08T22:00:01.820Z,4.85
2022-10-08T22:02:04.193Z,5.97
2022-10-08T22:04:08.217Z,5.70
2022-10-08T22:06:10.514Z,7.20
2022-10-08T22:08:12.755Z,5.82
2022-10-08T22:10:15.060Z,5.50
2022-10-08T22:12:17.321Z,5.97
2022-10-08T22:14:19.990Z,6.40
2022-10-08T22:16:23.028Z,5.55
2022-10-08T22:18:27.051Z,7.60
2022-10-08T22:20:29.949Z,5.25
2022-10-08T22:22:32.214Z,4.65
2022-10-08T22:24:36.203Z,6.22
2022-10-08T22:26:40.134Z,4.60
2022-10-08T22:28:42.878Z,6.05
2022-10-08T22:30:45.215Z,6.05
2022-10-08T22:32:47.681Z,6.85
2022-10-08T22:34:50.080Z,7.10
2022-10-08T22:36:52.320Z,8.40
2022-10-08T22:38:54.848Z,5.05
2022-10-08T22:41:07.557Z,4.82
2022-10-08T22:43:09.996Z,6.38
2022-10-08T22:45:12.307Z,4.85
2022-10-08T22:47:14.538Z,4.88
2022-10-08T22:49:16.840Z,6.03
2022-10-08T22:51:22.137Z,4.45
2022-10-08T22:53:24.397Z,6.63
2022-10-08T22:55:27.462Z,4.97
2022-10-08T22:57:29.716Z,5.53
2022-10-08T22:59:32.012Z,6.63
2022-10-08T23:01:34.251Z,5.88
2022-10-08T23:03:36.903Z,6.13
2022-10-08T23:05:39.183Z,5.07
2022-10-08T23:07:41.534Z,7.25
2022-10-08T23:09:43.759Z,4.75
2022-10-08T23:11:46.154Z,5.50
2022-10-08T23:13:56.179Z,5.15
2022-10-08T23:15:59.372Z,6.10
2022-10-08T23:18:01.604Z,4.78
2022-10-08T23:20:04.041Z,6.18
2022-10-08T23:22:06.495Z,5.55
2022-10-08T23:24:08.833Z,7.80
2022-10-08T23:26:11.099Z,5.88
2022-10-08T23:28:13.437Z,5.72
2022-10-08T23:30:38.455Z,5.28
2022-10-08T23:32:37.970Z,6.55
2022-10-08T23:34:40.207Z,5.50
2022-10-08T23:36:43.491Z,5.68
2022-10-08T23:38:46.217Z,5.85
2022-10-08T23:40:48.481Z,7.50
2022-10-08T23:42:51.067Z,4.75
2022-10-08T23:44:53.521Z,4.80
2022-10-08T23:46:55.766Z,6.65
2022-10-08T23:48:58.946Z,5.90
2022-10-08T23:51:01.226Z,5.18
2022-10-08T23:53:03.473Z,5.45
2022-10-08T23:55:05.947Z,7.47
2022-10-08T23:57:08.191Z,7.82
2022-10-08T23:59:10.475Z,6.03
